Magnetic Springs, OH (43036)

8:27 PM EDT on April 25, 2015 (GMT -0400)
CR 107 CR 177 | | Change Station
CLOSE
Current Station
Personal Weather Station
Location: Marysville, OH
Elevation: 951 ft
Nearby Weather Stations

Elev 951 ft 40.33 °N, 83.28 °W | Updated 60 seconds ago

Rain
Rain
42.6 °F
Feels Like 37 °F
N
10.4
Wind Variable Wind from NE

Today
High -- | Low -- °F
--% Chance of Precip.
Yesterday
High -- | Low -- °F
Precip. -- in
6:40 AM 8:22 PM
Waxing Crescent, 50% visible
Pressure 29.68 in
Visibility 7.0 miles
Clouds Scattered Clouds 1200 ft
Mostly Cloudy 6000 ft
Overcast 8500 ft
Windchill 37 °F
Dew Point 41 °F
Humidity 95%
Rainfall 0.60 in
Snow Depth Not available.
UV 0 out of 12
Pollen 8.20 out of 12
Air Quality Not available.
Flu Activity Regional
METAR KDLZ 260018Z AUTO 06014KT 7SM RA SCT012 BKN060 OVC085 06/04 A2968 RMK AO2

More Conditions Fewer Conditions

Pressure 29.68 in
Visibility 7.0 miles
Clouds Scattered Clouds 1200 ft
Mostly Cloudy 6000 ft
Overcast 8500 ft
Windchill 37 °F
Dew Point 41 °F
Humidity 95%
Rainfall 0.60 in
Snow Depth Not available.
UV 0 out of 12
Pollen 8.20 out of 12
Air Quality Not available.
Flu Activity Regional
METAR KDLZ 260018Z AUTO 06014KT 7SM RA SCT012 BKN060 OVC085 06/04 A2968 RMK AO2

More Conditions Fewer Conditions

10-Day Weather Forecast

Almanac

Astronomy

Apr. 25, 2015 Rise Set
Actual Time
Civil Twilight
Nautical Twilight
Astronomical Twilight
Moon
Length of Visible Light
Length of Day
Tomorrow will be .
, % of the Moon is Illuminated

Today's Extremes

State Highs State Lows

Community

WunderPhotos

Upload Photos

1,816,856 photos uploaded!

WunderBlogs® & News

Nearby

Air Quality

  Air Quality AQ Index Pollutant
Not available.

Snow Depth

Station Depth Elevation

Earthquake Activity

City Distance Mag. Time & Date
Minimum magnitude displayed is 2.5.

Coastal Water Temperatures

Place Temperature

Stations

Nearby Weather Stations

Station Location Temp. Windchill Dew Point Humidity Wind Precip. Elev Updated Type